AAL829 TFFF-KBHM
Flight info
| Callsign | AAL829 |
|---|---|
| Flight time | 4h 39m |
| Altitude | 34000 |
| Route | EMOLA2R EMOLA DCT SORRL UL454 ILURI Y185 ACONY/N0465F360 Y308 HAGIT Y421 SUMAC Y280 OCTAL Q110 JYROD |
| Aircraft | A319/M-SDE3FGHIRWY/LB1 |
Departure
| Time | 2026-04-13 17:23 |
|---|---|
| Airport | Martinique Aimé Césaire International Airport (TFFF) |
Arrival
| Time | 2026-04-13 22:02 |
|---|---|
| Airport | Birmingham-Shuttlesworth International Airport (KBHM) |
| Time | Latitude | Longitude | Altitude | Speed | Heading |
|---|---|---|---|---|---|
| 2026-04-13 16:58 | 14.59423 | -60.99898 | 19 ft | 0 kts | 105° |
| 2026-04-13 17:16 | 14.59422 | -60.99897 | 46 ft | 2 kts | 105° |
| 2026-04-13 17:16 | 14.59398 | -60.99885 | 21 ft | 4 kts | 198° |
| 2026-04-13 17:17 | 14.59373 | -60.99920 | 19 ft | 9 kts | 256° |
| 2026-04-13 17:17 | 14.59359 | -60.99992 | 19 ft | 11 kts | 261° |
| 2026-04-13 17:17 | 14.59309 | -61.00040 | 20 ft | 11 kts | 184° |
| 2026-04-13 17:17 | 14.59235 | -61.00029 | 20 ft | 11 kts | 169° |
| 2026-04-13 17:18 | 14.59162 | -61.00043 | 18 ft | 13 kts | 231° |
| 2026-04-13 17:18 | 14.59139 | -61.00136 | 16 ft | 14 kts | 259° |
| 2026-04-13 17:18 | 14.59119 | -61.00242 | 16 ft | 16 kts | 259° |
| 2026-04-13 17:18 | 14.59099 | -61.00360 | 16 ft | 17 kts | 259° |
| 2026-04-13 17:19 | 14.59077 | -61.00486 | 15 ft | 18 kts | 260° |
| 2026-04-13 17:19 | 14.59056 | -61.00614 | 17 ft | 17 kts | 261° |
| 2026-04-13 17:19 | 14.59037 | -61.00729 | 21 ft | 15 kts | 260° |
| 2026-04-13 17:19 | 14.59019 | -61.00832 | 23 ft | 15 kts | 259° |
| 2026-04-13 17:20 | 14.59000 | -61.00938 | 22 ft | 15 kts | 260° |
| 2026-04-13 17:20 | 14.58981 | -61.01049 | 22 ft | 15 kts | 260° |
| 2026-04-13 17:20 | 14.58963 | -61.01153 | 24 ft | 14 kts | 260° |
| 2026-04-13 17:20 | 14.58946 | -61.01253 | 27 ft | 14 kts | 260° |
| 2026-04-13 17:21 | 14.58930 | -61.01357 | 24 ft | 16 kts | 261° |
| 2026-04-13 17:21 | 14.58911 | -61.01473 | 22 ft | 17 kts | 260° |
| 2026-04-13 17:21 | 14.58888 | -61.01598 | 21 ft | 18 kts | 259° |
| 2026-04-13 17:21 | 14.58865 | -61.01732 | 17 ft | 18 kts | 261° |
| 2026-04-13 17:22 | 14.58842 | -61.01818 | 16 ft | 3 kts | 338° |
| 2026-04-13 17:22 | 14.58855 | -61.01800 | 17 ft | 6 kts | 70° |
| 2026-04-13 17:22 | 14.58896 | -61.01552 | 21 ft | 66 kts | 81° |
| 2026-04-13 17:22 | 14.59012 | -61.00887 | 22 ft | 120 kts | 80° |
| 2026-04-13 17:23 | 14.59193 | -60.99891 | 86 ft | 155 kts | 81° |
| 2026-04-13 17:23 | 14.59395 | -60.98759 | 538 ft | 164 kts | 82° |
| 2026-04-13 17:23 | 14.59596 | -60.97612 | 1295 ft | 163 kts | 81° |
| 2026-04-13 17:23 | 14.59801 | -60.96452 | 2001 ft | 167 kts | 82° |
| 2026-04-13 17:24 | 14.60003 | -60.95215 | 2301 ft | 187 kts | 84° |
| 2026-04-13 17:24 | 14.60233 | -60.93788 | 2582 ft | 212 kts | 83° |
| 2026-04-13 17:24 | 14.60492 | -60.92202 | 2917 ft | 236 kts | 83° |
| 2026-04-13 17:24 | 14.60780 | -60.90468 | 3468 ft | 251 kts | 82° |
| 2026-04-13 17:25 | 14.61492 | -60.88830 | 4208 ft | 263 kts | 50° |
| 2026-04-13 17:25 | 14.63071 | -60.87833 | 5005 ft | 276 kts | 16° |
| 2026-04-13 17:25 | 14.65020 | -60.87840 | 5833 ft | 286 kts | 351° |
| 2026-04-13 17:25 | 14.66950 | -60.88397 | 6670 ft | 289 kts | 343° |
| 2026-04-13 17:26 | 14.68859 | -60.89107 | 7447 ft | 292 kts | 342° |
| 2026-04-13 17:26 | 14.70767 | -60.89794 | 8219 ft | 294 kts | 343° |
| 2026-04-13 17:26 | 14.72741 | -60.90423 | 8992 ft | 297 kts | 345° |
| 2026-04-13 17:26 | 14.74744 | -60.90979 | 9778 ft | 299 kts | 347° |
| 2026-04-13 17:27 | 14.78964 | -60.91988 | 10474 ft | 334 kts | 348° |
| 2026-04-13 17:27 | 14.81301 | -60.92506 | 10748 ft | 351 kts | 348° |
| 2026-04-13 17:27 | 14.83732 | -60.93037 | 11322 ft | 357 kts | 348° |
| 2026-04-13 17:28 | 14.86186 | -60.93576 | 11963 ft | 362 kts | 348° |
| 2026-04-13 17:28 | 14.88631 | -60.94134 | 12594 ft | 365 kts | 344° |
| 2026-04-13 17:28 | 14.90996 | -60.95144 | 13213 ft | 368 kts | 328° |
| 2026-04-13 17:28 | 14.93031 | -60.96757 | 13861 ft | 369 kts | 313° |
| 2026-04-13 17:29 | 14.94589 | -60.98823 | 14402 ft | 370 kts | 299° |
| 2026-04-13 17:29 | 14.95626 | -61.01255 | 14992 ft | 370 kts | 286° |
| 2026-04-13 17:29 | 14.96361 | -61.03820 | 15572 ft | 373 kts | 285° |
| 2026-04-13 17:29 | 14.97100 | -61.06408 | 16156 ft | 375 kts | 285° |
| 2026-04-13 17:30 | 14.97841 | -61.09008 | 16731 ft | 377 kts | 285° |
| 2026-04-13 17:30 | 14.98576 | -61.11597 | 17298 ft | 380 kts | 285° |
| 2026-04-13 17:30 | 14.99323 | -61.14237 | 17861 ft | 383 kts | 285° |
| 2026-04-13 17:30 | 15.00076 | -61.16899 | 18390 ft | 386 kts | 285° |
| 2026-04-13 17:31 | 15.00833 | -61.19577 | 18880 ft | 388 kts | 285° |
| 2026-04-13 17:31 | 15.01586 | -61.22237 | 19360 ft | 390 kts | 285° |
| 2026-04-13 17:31 | 15.02351 | -61.24945 | 19862 ft | 392 kts | 285° |
| 2026-04-13 17:31 | 15.03120 | -61.27673 | 20352 ft | 394 kts | 285° |
| 2026-04-13 17:32 | 15.03892 | -61.30408 | 20856 ft | 396 kts | 285° |
| 2026-04-13 17:32 | 15.04658 | -61.33121 | 21345 ft | 397 kts | 285° |
| 2026-04-13 17:32 | 15.05436 | -61.35883 | 21835 ft | 399 kts | 285° |
| 2026-04-13 17:32 | 15.06215 | -61.38651 | 22311 ft | 400 kts | 285° |
| 2026-04-13 17:33 | 15.06996 | -61.41422 | 22774 ft | 402 kts | 285° |
| 2026-04-13 17:33 | 15.07776 | -61.44176 | 23231 ft | 403 kts | 285° |
| 2026-04-13 17:33 | 15.08569 | -61.46979 | 23662 ft | 405 kts | 285° |
| 2026-04-13 17:33 | 15.09359 | -61.49789 | 24035 ft | 406 kts | 284° |
| 2026-04-13 17:34 | 15.10946 | -61.55431 | 24693 ft | 408 kts | 284° |
| 2026-04-13 17:34 | 15.11741 | -61.58254 | 25005 ft | 409 kts | 284° |
| 2026-04-13 17:34 | 15.12538 | -61.61090 | 25314 ft | 410 kts | 284° |
| 2026-04-13 17:35 | 15.13324 | -61.63894 | 25612 ft | 411 kts | 284° |
| 2026-04-13 17:35 | 15.14141 | -61.66730 | 25906 ft | 412 kts | 285° |
| 2026-04-13 17:35 | 15.15016 | -61.69563 | 26200 ft | 413 kts | 286° |
| 2026-04-13 17:35 | 15.15615 | -61.71433 | 26392 ft | 414 kts | 286° |
| 2026-04-13 17:36 | 15.16539 | -61.74267 | 26671 ft | 415 kts | 287° |
| 2026-04-13 17:36 | 15.17465 | -61.77107 | 26962 ft | 416 kts | 286° |
| 2026-04-13 17:36 | 15.18683 | -61.80876 | 27330 ft | 417 kts | 286° |
| 2026-04-13 17:36 | 15.19286 | -61.82767 | 27519 ft | 417 kts | 286° |
| 2026-04-13 17:37 | 15.20191 | -61.85629 | 27793 ft | 418 kts | 285° |
| 2026-04-13 17:37 | 15.21123 | -61.88492 | 28058 ft | 420 kts | 289° |
| 2026-04-13 17:37 | 15.22447 | -61.91219 | 28325 ft | 425 kts | 299° |
| 2026-04-13 17:37 | 15.24261 | -61.93666 | 28584 ft | 432 kts | 309° |
| 2026-04-13 17:38 | 15.26400 | -61.95830 | 28838 ft | 435 kts | 311° |
| 2026-04-13 17:38 | 15.28597 | -61.98012 | 29088 ft | 436 kts | 311° |
| 2026-04-13 17:38 | 15.30787 | -62.00193 | 29333 ft | 437 kts | 311° |
| 2026-04-13 17:38 | 15.32985 | -62.02386 | 29580 ft | 438 kts | 311° |
| 2026-04-13 17:39 | 15.35163 | -62.04558 | 29819 ft | 439 kts | 311° |
| 2026-04-13 17:39 | 15.37381 | -62.06770 | 30062 ft | 440 kts | 311° |
| 2026-04-13 17:39 | 15.39588 | -62.08973 | 30265 ft | 441 kts | 311° |
| 2026-04-13 17:39 | 15.41810 | -62.11196 | 30543 ft | 440 kts | 311° |
| 2026-04-13 17:40 | 15.44011 | -62.13398 | 30853 ft | 438 kts | 311° |
| 2026-04-13 17:40 | 15.46171 | -62.15559 | 31157 ft | 437 kts | 311° |
| 2026-04-13 17:40 | 15.48360 | -62.17748 | 31470 ft | 435 kts | 310° |
| 2026-04-13 17:40 | 15.50540 | -62.19931 | 31767 ft | 434 kts | 310° |
| 2026-04-13 17:41 | 15.52713 | -62.22108 | 32080 ft | 432 kts | 310° |
| 2026-04-13 17:41 | 15.54846 | -62.24244 | 32390 ft | 430 kts | 310° |
| 2026-04-13 17:41 | 15.57002 | -62.26403 | 32710 ft | 429 kts | 310° |
| 2026-04-13 17:41 | 15.59149 | -62.28552 | 33035 ft | 427 kts | 310° |
| 2026-04-13 17:42 | 15.61297 | -62.30703 | 33343 ft | 426 kts | 310° |
| 2026-04-13 17:42 | 15.63401 | -62.32810 | 33670 ft | 424 kts | 310° |
| 2026-04-13 17:42 | 15.65519 | -62.34931 | 33949 ft | 423 kts | 309° |
| 2026-04-13 17:43 | 15.69736 | -62.39153 | 34009 ft | 418 kts | 309° |
| 2026-04-13 17:43 | 15.73923 | -62.43351 | 34009 ft | 417 kts | 309° |
| 2026-04-13 17:44 | 15.78083 | -62.47528 | 34006 ft | 417 kts | 309° |
| 2026-04-13 17:44 | 15.82230 | -62.51694 | 34009 ft | 417 kts | 309° |
| 2026-04-13 17:45 | 15.86401 | -62.55885 | 34008 ft | 416 kts | 309° |
| 2026-04-13 17:45 | 15.90563 | -62.60081 | 34008 ft | 416 kts | 309° |
| 2026-04-13 17:46 | 15.94713 | -62.64262 | 34008 ft | 416 kts | 309° |
| 2026-04-13 17:46 | 15.98878 | -62.68458 | 34009 ft | 416 kts | 309° |
| 2026-04-13 17:47 | 16.03022 | -62.72632 | 34008 ft | 416 kts | 309° |
| 2026-04-13 17:47 | 16.07187 | -62.76831 | 34011 ft | 417 kts | 309° |
| 2026-04-13 17:48 | 16.11336 | -62.81018 | 34013 ft | 417 kts | 309° |
| 2026-04-13 17:48 | 16.15499 | -62.85225 | 34014 ft | 417 kts | 309° |
| 2026-04-13 17:49 | 16.19674 | -62.89439 | 34010 ft | 417 kts | 309° |
| 2026-04-13 17:49 | 16.23824 | -62.93626 | 34011 ft | 417 kts | 309° |
| 2026-04-13 17:50 | 16.28001 | -62.97854 | 34016 ft | 417 kts | 309° |
| 2026-04-13 17:50 | 16.31895 | -63.02288 | 34012 ft | 411 kts | 302° |
| 2026-04-13 17:51 | 16.35471 | -63.06907 | 34009 ft | 412 kts | 302° |
| 2026-04-13 17:51 | 16.39076 | -63.11572 | 34008 ft | 412 kts | 302° |
| 2026-04-13 17:52 | 16.42647 | -63.16193 | 34009 ft | 412 kts | 302° |
| 2026-04-13 17:52 | 16.46241 | -63.20842 | 34008 ft | 412 kts | 302° |
| 2026-04-13 17:53 | 16.49230 | -63.24707 | 34004 ft | 412 kts | 302° |
| 2026-04-13 17:53 | 16.53437 | -63.30158 | 34007 ft | 412 kts | 302° |
| 2026-04-13 17:54 | 16.57016 | -63.34796 | 34006 ft | 412 kts | 302° |
| 2026-04-13 17:54 | 16.60613 | -63.39469 | 34022 ft | 412 kts | 302° |
| 2026-04-13 17:55 | 16.64209 | -63.44138 | 34016 ft | 412 kts | 302° |
| 2026-04-13 17:55 | 16.67780 | -63.48784 | 34006 ft | 412 kts | 302° |
| 2026-04-13 17:56 | 16.71374 | -63.53457 | 34013 ft | 412 kts | 302° |
| 2026-04-13 17:56 | 16.74932 | -63.58098 | 34019 ft | 412 kts | 302° |
| 2026-04-13 17:57 | 16.78523 | -63.62773 | 34013 ft | 412 kts | 302° |
| 2026-04-13 17:57 | 16.82112 | -63.67434 | 34024 ft | 412 kts | 302° |
| 2026-04-13 17:58 | 16.85677 | -63.72085 | 34021 ft | 411 kts | 302° |
| 2026-04-13 17:58 | 16.89254 | -63.76760 | 34025 ft | 411 kts | 302° |
| 2026-04-13 17:59 | 16.92813 | -63.81404 | 34026 ft | 411 kts | 302° |
| 2026-04-13 17:59 | 16.96385 | -63.86064 | 34027 ft | 411 kts | 302° |
| 2026-04-13 18:00 | 16.99955 | -63.90736 | 34021 ft | 410 kts | 302° |
| 2026-04-13 18:00 | 17.03519 | -63.95402 | 34015 ft | 410 kts | 302° |
| 2026-04-13 18:01 | 17.07060 | -64.00034 | 34021 ft | 410 kts | 302° |
| 2026-04-13 18:01 | 17.10627 | -64.04695 | 34018 ft | 410 kts | 302° |
| 2026-04-13 18:02 | 17.14185 | -64.09355 | 34016 ft | 409 kts | 301° |
| 2026-04-13 18:02 | 17.17705 | -64.13975 | 34025 ft | 409 kts | 301° |
| 2026-04-13 18:03 | 17.21254 | -64.18643 | 34024 ft | 409 kts | 301° |
| 2026-04-13 18:03 | 17.24776 | -64.23280 | 34025 ft | 408 kts | 301° |
| 2026-04-13 18:04 | 17.28326 | -64.27938 | 34022 ft | 408 kts | 301° |
| 2026-04-13 18:04 | 17.31873 | -64.32595 | 34023 ft | 408 kts | 301° |
| 2026-04-13 18:05 | 17.35408 | -64.37243 | 34024 ft | 408 kts | 301° |
| 2026-04-13 18:05 | 17.38919 | -64.41873 | 34028 ft | 407 kts | 301° |
| 2026-04-13 18:06 | 17.42451 | -64.46524 | 34023 ft | 407 kts | 301° |
| 2026-04-13 18:06 | 17.45956 | -64.51153 | 34024 ft | 407 kts | 301° |
| 2026-04-13 18:07 | 17.49483 | -64.55812 | 34028 ft | 407 kts | 301° |
| 2026-04-13 18:07 | 17.53009 | -64.60464 | 34034 ft | 407 kts | 301° |
| 2026-04-13 18:08 | 17.56514 | -64.65094 | 34045 ft | 407 kts | 301° |
| 2026-04-13 18:08 | 17.60039 | -64.69751 | 34053 ft | 407 kts | 301° |
| 2026-04-13 18:09 | 17.63530 | -64.74379 | 34064 ft | 406 kts | 302° |
| 2026-04-13 18:09 | 17.67041 | -64.79032 | 34066 ft | 406 kts | 302° |
| 2026-04-13 18:10 | 17.70552 | -64.83689 | 34063 ft | 406 kts | 302° |
| 2026-04-13 18:10 | 17.74035 | -64.88299 | 34062 ft | 405 kts | 302° |
| 2026-04-13 18:11 | 17.77541 | -64.92944 | 34055 ft | 405 kts | 302° |
| 2026-04-13 18:11 | 17.81023 | -64.97581 | 34042 ft | 405 kts | 302° |
| 2026-04-13 18:12 | 17.84514 | -65.02228 | 34039 ft | 405 kts | 302° |
| 2026-04-13 18:12 | 17.88015 | -65.06876 | 34042 ft | 405 kts | 302° |
| 2026-04-13 18:13 | 17.91492 | -65.11499 | 34019 ft | 405 kts | 302° |
| 2026-04-13 18:13 | 17.94984 | -65.16148 | 34020 ft | 404 kts | 302° |
| 2026-04-13 18:14 | 17.98453 | -65.20774 | 34014 ft | 405 kts | 302° |
| 2026-04-13 18:14 | 18.01944 | -65.25431 | 34010 ft | 406 kts | 302° |
| 2026-04-13 18:15 | 18.05440 | -65.30107 | 34013 ft | 407 kts | 302° |
| 2026-04-13 18:15 | 18.08948 | -65.34790 | 34014 ft | 408 kts | 303° |
| 2026-04-13 18:16 | 18.12451 | -65.39468 | 34015 ft | 409 kts | 303° |
| 2026-04-13 18:16 | 18.15980 | -65.44189 | 34018 ft | 411 kts | 303° |
| 2026-04-13 18:17 | 18.19502 | -65.48904 | 34010 ft | 412 kts | 303° |
| 2026-04-13 18:17 | 18.23059 | -65.53669 | 34016 ft | 414 kts | 303° |
| 2026-04-13 18:18 | 18.26602 | -65.58415 | 34014 ft | 416 kts | 303° |
| 2026-04-13 18:18 | 18.30190 | -65.63239 | 34014 ft | 418 kts | 303° |
| 2026-04-13 18:19 | 18.33773 | -65.68053 | 34018 ft | 420 kts | 303° |
| 2026-04-13 18:19 | 18.37390 | -65.72906 | 34021 ft | 422 kts | 303° |
| 2026-04-13 18:20 | 18.41006 | -65.77761 | 34025 ft | 423 kts | 303° |
| 2026-04-13 18:20 | 18.44649 | -65.82667 | 34026 ft | 424 kts | 303° |
| 2026-04-13 18:21 | 18.48279 | -65.87552 | 34027 ft | 426 kts | 303° |
| 2026-04-13 18:21 | 18.51932 | -65.92470 | 34028 ft | 426 kts | 303° |
| 2026-04-13 18:22 | 18.55591 | -65.97410 | 34028 ft | 427 kts | 303° |
| 2026-04-13 18:22 | 18.59260 | -66.02368 | 34025 ft | 428 kts | 303° |
| 2026-04-13 18:23 | 18.62911 | -66.07293 | 34029 ft | 429 kts | 303° |
| 2026-04-13 18:23 | 18.66589 | -66.12266 | 34032 ft | 429 kts | 302° |
| 2026-04-13 18:24 | 18.70236 | -66.17201 | 34041 ft | 429 kts | 302° |
| 2026-04-13 18:24 | 18.73907 | -66.22173 | 34047 ft | 428 kts | 302° |
| 2026-04-13 18:25 | 18.76956 | -66.26313 | 34052 ft | 428 kts | 302° |
| 2026-04-13 18:25 | 18.80617 | -66.31270 | 34060 ft | 427 kts | 302° |
| 2026-04-13 18:26 | 18.84248 | -66.36194 | 34064 ft | 426 kts | 301° |
| 2026-04-13 18:26 | 18.87888 | -66.41140 | 34061 ft | 424 kts | 301° |
| 2026-04-13 18:27 | 18.91482 | -66.46028 | 34060 ft | 423 kts | 301° |
| 2026-04-13 18:27 | 18.95001 | -66.51005 | 34060 ft | 420 kts | 298° |
| 2026-04-13 18:28 | 18.98247 | -66.56078 | 34059 ft | 417 kts | 297° |
| 2026-04-13 18:28 | 19.01474 | -66.61195 | 34063 ft | 417 kts | 298° |
| 2026-04-13 18:29 | 19.04738 | -66.66267 | 34060 ft | 416 kts | 298° |
| 2026-04-13 18:29 | 19.07998 | -66.71277 | 34062 ft | 415 kts | 298° |
| 2026-04-13 18:30 | 19.11275 | -66.76335 | 34057 ft | 415 kts | 298° |
| 2026-04-13 18:30 | 19.14508 | -66.81343 | 34053 ft | 414 kts | 298° |
| 2026-04-13 18:31 | 19.17769 | -66.86384 | 34054 ft | 414 kts | 298° |
| 2026-04-13 18:31 | 19.21024 | -66.91418 | 34050 ft | 414 kts | 298° |
| 2026-04-13 18:32 | 19.24250 | -66.96423 | 34049 ft | 413 kts | 298° |
| 2026-04-13 18:32 | 19.27494 | -67.01457 | 34049 ft | 413 kts | 298° |
| 2026-04-13 18:33 | 19.30730 | -67.06489 | 34047 ft | 413 kts | 298° |
| 2026-04-13 18:33 | 19.33954 | -67.11498 | 34045 ft | 413 kts | 298° |
| 2026-04-13 18:34 | 19.38802 | -67.19046 | 34048 ft | 412 kts | 299° |
| 2026-04-13 18:34 | 19.42007 | -67.24036 | 34045 ft | 412 kts | 299° |
| 2026-04-13 18:35 | 19.45239 | -67.29068 | 34046 ft | 412 kts | 299° |
| 2026-04-13 18:35 | 19.48462 | -67.34092 | 34051 ft | 411 kts | 299° |
| 2026-04-13 18:36 | 19.51662 | -67.39090 | 34050 ft | 411 kts | 299° |
| 2026-04-13 18:36 | 19.54871 | -67.44105 | 34051 ft | 410 kts | 299° |
| 2026-04-13 18:37 | 19.58068 | -67.49123 | 34043 ft | 410 kts | 298° |
| 2026-04-13 18:37 | 19.59654 | -67.51616 | 34212 ft | 412 kts | 298° |
| 2026-04-13 18:37 | 19.61262 | -67.54139 | 34505 ft | 412 kts | 299° |
| 2026-04-13 18:38 | 19.62871 | -67.56655 | 34813 ft | 411 kts | 299° |
| 2026-04-13 18:38 | 19.64475 | -67.59164 | 35112 ft | 409 kts | 299° |
| 2026-04-13 18:38 | 19.66070 | -67.61660 | 35392 ft | 408 kts | 299° |
| 2026-04-13 18:38 | 19.67658 | -67.64144 | 35670 ft | 406 kts | 299° |
| 2026-04-13 18:39 | 19.69246 | -67.66630 | 35929 ft | 405 kts | 299° |
| 2026-04-13 18:39 | 19.70812 | -67.69086 | 36027 ft | 405 kts | 299° |
| 2026-04-13 18:39 | 19.73968 | -67.74046 | 36039 ft | 403 kts | 298° |
| 2026-04-13 18:40 | 19.77088 | -67.78968 | 36044 ft | 403 kts | 299° |
| 2026-04-13 18:40 | 19.80231 | -67.83907 | 36040 ft | 403 kts | 299° |
| 2026-04-13 18:41 | 19.83380 | -67.88846 | 36036 ft | 403 kts | 299° |
| 2026-04-13 18:41 | 19.86506 | -67.93760 | 36038 ft | 403 kts | 299° |
| 2026-04-13 18:42 | 19.89635 | -67.98711 | 36036 ft | 403 kts | 299° |
| 2026-04-13 18:42 | 19.92763 | -68.03667 | 36041 ft | 403 kts | 299° |
| 2026-04-13 18:43 | 19.95875 | -68.08588 | 36036 ft | 403 kts | 299° |
| 2026-04-13 18:43 | 19.99006 | -68.13546 | 36038 ft | 403 kts | 299° |
| 2026-04-13 18:44 | 20.02130 | -68.18471 | 36037 ft | 403 kts | 299° |
| 2026-04-13 18:44 | 20.05262 | -68.23427 | 36030 ft | 403 kts | 299° |
| 2026-04-13 18:45 | 20.08390 | -68.28397 | 36037 ft | 403 kts | 299° |
| 2026-04-13 18:45 | 20.11503 | -68.33339 | 36036 ft | 403 kts | 299° |
| 2026-04-13 18:46 | 20.14637 | -68.38306 | 36036 ft | 404 kts | 299° |
| 2026-04-13 18:46 | 20.17771 | -68.43275 | 36036 ft | 404 kts | 299° |
| 2026-04-13 18:47 | 20.20899 | -68.48251 | 36043 ft | 404 kts | 299° |
| 2026-04-13 18:47 | 20.24009 | -68.53216 | 36037 ft | 405 kts | 299° |
| 2026-04-13 18:48 | 20.27062 | -68.58262 | 36039 ft | 404 kts | 297° |
| 2026-04-13 18:48 | 20.29857 | -68.63410 | 36040 ft | 403 kts | 295° |
| 2026-04-13 18:49 | 20.32608 | -68.68620 | 36030 ft | 403 kts | 296° |
| 2026-04-13 18:49 | 20.35412 | -68.73826 | 36037 ft | 404 kts | 296° |
| 2026-04-13 18:50 | 20.38238 | -68.79003 | 36033 ft | 405 kts | 296° |
| 2026-04-13 18:50 | 20.41069 | -68.84193 | 36035 ft | 405 kts | 296° |
| 2026-04-13 18:51 | 20.43889 | -68.89370 | 36036 ft | 405 kts | 296° |
| 2026-04-13 18:51 | 20.46730 | -68.94591 | 36042 ft | 406 kts | 296° |
| 2026-04-13 18:52 | 20.49551 | -68.99794 | 36042 ft | 406 kts | 296° |
| 2026-04-13 18:52 | 20.52382 | -69.05027 | 36045 ft | 407 kts | 296° |
| 2026-04-13 18:53 | 20.55192 | -69.10229 | 36048 ft | 407 kts | 296° |
| 2026-04-13 18:53 | 20.58027 | -69.15470 | 36054 ft | 407 kts | 296° |
| 2026-04-13 18:54 | 20.60828 | -69.20635 | 36051 ft | 407 kts | 296° |
| 2026-04-13 18:54 | 20.63643 | -69.25854 | 36055 ft | 407 kts | 296° |
| 2026-04-13 18:55 | 20.66473 | -69.31107 | 36065 ft | 407 kts | 296° |
| 2026-04-13 18:55 | 20.69284 | -69.36326 | 36057 ft | 407 kts | 296° |
| 2026-04-13 18:56 | 20.72109 | -69.41580 | 36059 ft | 407 kts | 296° |
| 2026-04-13 18:56 | 20.74943 | -69.46841 | 36064 ft | 408 kts | 296° |
| 2026-04-13 18:57 | 20.77751 | -69.52063 | 36065 ft | 408 kts | 296° |
| 2026-04-13 18:57 | 20.80579 | -69.57334 | 36071 ft | 408 kts | 296° |
| 2026-04-13 18:58 | 20.83412 | -69.62607 | 36074 ft | 408 kts | 296° |
| 2026-04-13 18:58 | 20.86230 | -69.67857 | 36069 ft | 409 kts | 296° |
| 2026-04-13 18:59 | 20.89054 | -69.73136 | 36071 ft | 409 kts | 296° |
| 2026-04-13 18:59 | 20.91880 | -69.78425 | 36066 ft | 409 kts | 296° |
| 2026-04-13 19:00 | 20.94705 | -69.83719 | 36071 ft | 409 kts | 297° |
| 2026-04-13 19:00 | 20.97506 | -69.88972 | 36067 ft | 409 kts | 297° |
| 2026-04-13 19:01 | 21.00329 | -69.94262 | 36069 ft | 409 kts | 297° |
| 2026-04-13 19:01 | 21.03158 | -69.99557 | 36067 ft | 409 kts | 297° |
| 2026-04-13 19:02 | 21.05965 | -70.04827 | 36069 ft | 409 kts | 297° |
| 2026-04-13 19:02 | 21.08779 | -70.10128 | 36071 ft | 409 kts | 297° |
| 2026-04-13 19:03 | 21.11593 | -70.15434 | 36066 ft | 409 kts | 297° |
| 2026-04-13 19:03 | 21.14399 | -70.20711 | 36063 ft | 410 kts | 297° |
| 2026-04-13 19:04 | 21.17227 | -70.26034 | 36059 ft | 410 kts | 297° |
| 2026-04-13 19:04 | 21.20039 | -70.31354 | 36054 ft | 411 kts | 297° |
| 2026-04-13 19:05 | 21.22858 | -70.36697 | 36058 ft | 411 kts | 297° |
| 2026-04-13 19:05 | 21.25665 | -70.42006 | 36056 ft | 412 kts | 298° |
| 2026-04-13 19:06 | 21.28495 | -70.47347 | 36061 ft | 412 kts | 298° |
| 2026-04-13 19:06 | 21.31328 | -70.52714 | 36055 ft | 413 kts | 298° |
| 2026-04-13 19:07 | 21.34149 | -70.58078 | 36060 ft | 413 kts | 298° |
| 2026-04-13 19:07 | 21.36973 | -70.63434 | 36062 ft | 414 kts | 298° |
| 2026-04-13 19:08 | 21.39815 | -70.68832 | 36069 ft | 414 kts | 298° |
| 2026-04-13 19:08 | 21.42634 | -70.74200 | 36067 ft | 414 kts | 298° |
| 2026-04-13 19:09 | 21.45468 | -70.79600 | 36064 ft | 415 kts | 298° |
| 2026-04-13 19:09 | 21.48283 | -70.84971 | 36066 ft | 415 kts | 299° |
| 2026-04-13 19:10 | 21.51120 | -70.90388 | 36063 ft | 415 kts | 299° |
| 2026-04-13 19:10 | 21.53940 | -70.95779 | 36060 ft | 415 kts | 299° |
| 2026-04-13 19:11 | 21.56775 | -71.01199 | 36055 ft | 415 kts | 299° |
| 2026-04-13 19:11 | 21.59193 | -71.05668 | 36054 ft | 415 kts | 302° |
| 2026-04-13 19:12 | 21.62932 | -71.11682 | 36056 ft | 416 kts | 304° |
| 2026-04-13 19:12 | 21.65678 | -71.15975 | 36063 ft | 416 kts | 304° |
| 2026-04-13 19:13 | 21.68895 | -71.21127 | 36071 ft | 416 kts | 303° |
| 2026-04-13 19:13 | 21.72093 | -71.26338 | 36077 ft | 417 kts | 303° |
| 2026-04-13 19:14 | 21.75254 | -71.31524 | 36085 ft | 417 kts | 303° |
| 2026-04-13 19:14 | 21.78453 | -71.36753 | 36092 ft | 417 kts | 304° |
| 2026-04-13 19:15 | 21.81630 | -71.41935 | 36090 ft | 417 kts | 304° |
| 2026-04-13 19:15 | 21.84832 | -71.47158 | 36090 ft | 417 kts | 304° |
| 2026-04-13 19:16 | 21.88010 | -71.52349 | 36089 ft | 417 kts | 304° |
| 2026-04-13 19:16 | 21.91192 | -71.57566 | 36090 ft | 416 kts | 304° |
| 2026-04-13 19:17 | 21.94376 | -71.62789 | 36091 ft | 416 kts | 304° |
| 2026-04-13 19:17 | 21.97554 | -71.68004 | 36092 ft | 416 kts | 304° |
| 2026-04-13 19:18 | 22.00717 | -71.73195 | 36092 ft | 416 kts | 304° |
| 2026-04-13 19:18 | 22.03892 | -71.78428 | 36097 ft | 416 kts | 304° |
| 2026-04-13 19:19 | 22.07038 | -71.83615 | 36098 ft | 415 kts | 305° |
| 2026-04-13 19:19 | 22.10218 | -71.88841 | 36106 ft | 415 kts | 305° |
| 2026-04-13 19:20 | 22.13382 | -71.94050 | 36107 ft | 415 kts | 305° |
| 2026-04-13 19:20 | 22.16525 | -71.99237 | 36106 ft | 414 kts | 305° |
| 2026-04-13 19:21 | 22.19676 | -72.04452 | 36115 ft | 414 kts | 305° |
| 2026-04-13 19:21 | 22.22812 | -72.09630 | 36112 ft | 413 kts | 305° |
| 2026-04-13 19:22 | 22.25955 | -72.14831 | 36112 ft | 413 kts | 305° |
| 2026-04-13 19:22 | 22.29091 | -72.20028 | 36113 ft | 412 kts | 305° |
| 2026-04-13 19:23 | 22.32206 | -72.25178 | 36114 ft | 411 kts | 306° |
| 2026-04-13 19:23 | 22.35338 | -72.30365 | 36113 ft | 411 kts | 306° |
| 2026-04-13 19:24 | 22.38456 | -72.35551 | 36121 ft | 411 kts | 306° |
| 2026-04-13 19:24 | 22.41549 | -72.40703 | 36122 ft | 410 kts | 306° |
| 2026-04-13 19:25 | 22.44662 | -72.45890 | 36123 ft | 410 kts | 306° |
| 2026-04-13 19:25 | 22.47746 | -72.51034 | 36130 ft | 409 kts | 306° |
| 2026-04-13 19:26 | 22.50835 | -72.56190 | 36119 ft | 408 kts | 306° |
| 2026-04-13 19:26 | 22.53914 | -72.61337 | 36133 ft | 407 kts | 306° |
| 2026-04-13 19:27 | 22.56995 | -72.66488 | 36130 ft | 407 kts | 306° |
| 2026-04-13 19:27 | 22.60060 | -72.71601 | 36123 ft | 406 kts | 306° |
| 2026-04-13 19:28 | 22.63136 | -72.76744 | 36131 ft | 406 kts | 306° |
| 2026-04-13 19:28 | 22.66191 | -72.81858 | 36136 ft | 405 kts | 306° |
| 2026-04-13 19:29 | 22.69250 | -72.86986 | 36136 ft | 405 kts | 306° |
| 2026-04-13 19:29 | 22.72297 | -72.92119 | 36134 ft | 404 kts | 306° |
| 2026-04-13 19:30 | 22.75336 | -72.97230 | 36149 ft | 403 kts | 306° |
| 2026-04-13 19:30 | 22.78353 | -73.02309 | 36138 ft | 403 kts | 306° |
| 2026-04-13 19:31 | 22.81386 | -73.07415 | 36143 ft | 402 kts | 306° |
| 2026-04-13 19:31 | 22.84399 | -73.12491 | 36139 ft | 401 kts | 306° |
| 2026-04-13 19:32 | 22.87423 | -73.17594 | 36140 ft | 401 kts | 306° |
| 2026-04-13 19:32 | 22.90439 | -73.22689 | 36147 ft | 401 kts | 306° |
| 2026-04-13 19:33 | 22.93449 | -73.27781 | 36152 ft | 400 kts | 306° |
| 2026-04-13 19:34 | 22.97945 | -73.35389 | 36142 ft | 399 kts | 306° |
| 2026-04-13 19:34 | 23.00933 | -73.40451 | 36146 ft | 399 kts | 306° |
| 2026-04-13 19:35 | 23.03926 | -73.45543 | 36148 ft | 398 kts | 306° |
| 2026-04-13 19:35 | 23.06890 | -73.50583 | 36147 ft | 398 kts | 306° |
| 2026-04-13 19:36 | 23.09870 | -73.55641 | 36142 ft | 397 kts | 306° |
| 2026-04-13 19:36 | 23.12848 | -73.60706 | 36142 ft | 397 kts | 306° |
| 2026-04-13 19:37 | 23.15824 | -73.65774 | 36142 ft | 397 kts | 306° |
| 2026-04-13 19:37 | 23.18776 | -73.70816 | 36137 ft | 397 kts | 306° |
| 2026-04-13 19:38 | 23.21744 | -73.75888 | 36133 ft | 397 kts | 306° |
| 2026-04-13 19:38 | 23.24714 | -73.80967 | 36134 ft | 397 kts | 306° |
| 2026-04-13 19:39 | 23.27665 | -73.86008 | 36140 ft | 397 kts | 306° |
| 2026-04-13 19:39 | 23.30638 | -73.91083 | 36140 ft | 397 kts | 306° |
| 2026-04-13 19:40 | 23.33607 | -73.96161 | 36141 ft | 398 kts | 306° |
| 2026-04-13 19:40 | 23.36583 | -74.01263 | 36147 ft | 398 kts | 306° |
| 2026-04-13 19:41 | 23.39534 | -74.06331 | 36156 ft | 398 kts | 306° |
| 2026-04-13 19:41 | 23.42512 | -74.11451 | 36153 ft | 398 kts | 306° |
| 2026-04-13 19:42 | 23.46942 | -74.19075 | 36152 ft | 398 kts | 306° |
| 2026-04-13 19:42 | 23.49911 | -74.24178 | 36156 ft | 398 kts | 306° |
| 2026-04-13 19:43 | 23.52858 | -74.29266 | 36157 ft | 398 kts | 306° |
| 2026-04-13 19:43 | 23.55819 | -74.34380 | 36155 ft | 399 kts | 306° |
| 2026-04-13 19:44 | 23.58780 | -74.39505 | 36154 ft | 399 kts | 305° |
| 2026-04-13 19:44 | 23.61724 | -74.44606 | 36155 ft | 399 kts | 305° |
| 2026-04-13 19:45 | 23.64682 | -74.49733 | 36157 ft | 399 kts | 305° |
| 2026-04-13 19:45 | 23.67630 | -74.54836 | 36156 ft | 399 kts | 305° |
| 2026-04-13 19:46 | 23.70590 | -74.59970 | 36158 ft | 399 kts | 305° |
| 2026-04-13 19:46 | 23.73548 | -74.65114 | 36160 ft | 399 kts | 305° |
| 2026-04-13 19:47 | 23.76489 | -74.70233 | 36160 ft | 399 kts | 305° |
| 2026-04-13 19:47 | 23.79449 | -74.75387 | 36161 ft | 399 kts | 305° |
| 2026-04-13 19:48 | 23.82405 | -74.80524 | 36163 ft | 400 kts | 305° |
| 2026-04-13 19:48 | 23.85349 | -74.85662 | 36162 ft | 400 kts | 305° |
| 2026-04-13 19:49 | 23.88308 | -74.90825 | 36167 ft | 400 kts | 305° |
| 2026-04-13 19:49 | 23.91240 | -74.95966 | 36164 ft | 400 kts | 305° |
| 2026-04-13 19:50 | 23.94188 | -75.01133 | 36164 ft | 400 kts | 305° |
| 2026-04-13 19:50 | 23.97150 | -75.06312 | 36168 ft | 400 kts | 305° |
| 2026-04-13 19:51 | 24.00088 | -75.11444 | 36168 ft | 400 kts | 305° |
| 2026-04-13 19:51 | 24.03032 | -75.16618 | 36171 ft | 401 kts | 305° |
| 2026-04-13 19:52 | 24.05982 | -75.21807 | 36169 ft | 401 kts | 305° |
| 2026-04-13 19:52 | 24.08920 | -75.26975 | 36169 ft | 401 kts | 305° |
| 2026-04-13 19:53 | 24.11878 | -75.32179 | 36169 ft | 401 kts | 304° |
| 2026-04-13 19:53 | 24.14809 | -75.37347 | 36170 ft | 402 kts | 304° |
| 2026-04-13 19:54 | 24.17745 | -75.42532 | 36175 ft | 402 kts | 304° |
| 2026-04-13 19:54 | 24.20699 | -75.47749 | 36172 ft | 402 kts | 304° |
| 2026-04-13 19:55 | 24.23637 | -75.52948 | 36175 ft | 402 kts | 304° |
| 2026-04-13 19:55 | 24.26587 | -75.58173 | 36179 ft | 403 kts | 304° |
| 2026-04-13 19:56 | 24.29524 | -75.63375 | 36179 ft | 403 kts | 304° |
| 2026-04-13 19:56 | 24.32480 | -75.68621 | 36182 ft | 403 kts | 304° |
| 2026-04-13 19:57 | 24.35409 | -75.73816 | 36184 ft | 403 kts | 304° |
| 2026-04-13 19:57 | 24.38363 | -75.79063 | 36183 ft | 403 kts | 304° |
| 2026-04-13 19:58 | 24.41307 | -75.84310 | 36187 ft | 403 kts | 304° |
| 2026-04-13 19:58 | 24.44238 | -75.89531 | 36187 ft | 403 kts | 304° |
| 2026-04-13 19:59 | 24.47186 | -75.94779 | 36186 ft | 403 kts | 304° |
| 2026-04-13 19:59 | 24.50111 | -75.99988 | 36187 ft | 403 kts | 304° |
| 2026-04-13 20:00 | 24.53047 | -76.05245 | 36187 ft | 403 kts | 304° |
| 2026-04-13 20:00 | 24.55987 | -76.10519 | 36187 ft | 404 kts | 304° |
| 2026-04-13 20:01 | 24.58933 | -76.15745 | 36191 ft | 403 kts | 305° |
| 2026-04-13 20:01 | 24.61486 | -76.20041 | 36188 ft | 403 kts | 306° |
| 2026-04-13 20:02 | 24.64603 | -76.25185 | 36192 ft | 403 kts | 306° |
| 2026-04-13 20:02 | 24.67681 | -76.30308 | 36199 ft | 404 kts | 306° |
| 2026-04-13 20:03 | 24.70763 | -76.35500 | 36197 ft | 404 kts | 306° |
| 2026-04-13 20:03 | 24.73818 | -76.40661 | 36199 ft | 405 kts | 306° |
| 2026-04-13 20:04 | 24.76896 | -76.45869 | 36197 ft | 405 kts | 306° |
| 2026-04-13 20:04 | 24.79981 | -76.51072 | 36196 ft | 405 kts | 306° |
| 2026-04-13 20:05 | 24.83042 | -76.56232 | 36199 ft | 405 kts | 306° |
| 2026-04-13 20:05 | 24.86130 | -76.61453 | 36199 ft | 406 kts | 305° |
| 2026-04-13 20:06 | 24.89203 | -76.66664 | 36198 ft | 406 kts | 305° |
| 2026-04-13 20:06 | 24.92265 | -76.71859 | 36205 ft | 406 kts | 305° |
| 2026-04-13 20:07 | 24.95345 | -76.77094 | 36206 ft | 407 kts | 305° |
| 2026-04-13 20:07 | 24.98425 | -76.82335 | 36210 ft | 407 kts | 305° |
| 2026-04-13 20:08 | 25.01511 | -76.87578 | 36213 ft | 407 kts | 305° |
| 2026-04-13 20:08 | 25.04583 | -76.92805 | 36218 ft | 408 kts | 305° |
| 2026-04-13 20:09 | 25.07671 | -76.98081 | 36223 ft | 408 kts | 305° |
| 2026-04-13 20:09 | 25.10736 | -77.03313 | 36218 ft | 408 kts | 305° |
| 2026-04-13 20:10 | 25.13821 | -77.08587 | 36225 ft | 408 kts | 304° |
| 2026-04-13 20:10 | 25.16877 | -77.13812 | 36228 ft | 408 kts | 304° |
| 2026-04-13 20:11 | 25.19952 | -77.19083 | 36228 ft | 408 kts | 304° |
| 2026-04-13 20:11 | 25.23011 | -77.24339 | 36225 ft | 408 kts | 304° |
| 2026-04-13 20:12 | 25.26085 | -77.29604 | 36231 ft | 408 kts | 304° |
| 2026-04-13 20:12 | 25.29099 | -77.34960 | 36228 ft | 410 kts | 298° |
| 2026-04-13 20:13 | 25.31146 | -77.40844 | 36236 ft | 413 kts | 292° |
| 2026-04-13 20:13 | 25.33091 | -77.46826 | 36232 ft | 413 kts | 292° |
| 2026-04-13 20:14 | 25.35028 | -77.52771 | 36230 ft | 413 kts | 292° |
| 2026-04-13 20:14 | 25.36974 | -77.58765 | 36233 ft | 413 kts | 292° |
| 2026-04-13 20:15 | 25.38923 | -77.64754 | 36229 ft | 413 kts | 292° |
| 2026-04-13 20:15 | 25.40853 | -77.70722 | 36235 ft | 413 kts | 292° |
| 2026-04-13 20:16 | 25.42781 | -77.76721 | 36234 ft | 414 kts | 292° |
| 2026-04-13 20:16 | 25.44495 | -77.82822 | 36235 ft | 415 kts | 288° |
| 2026-04-13 20:17 | 25.45973 | -77.88957 | 36236 ft | 415 kts | 287° |
| 2026-04-13 20:17 | 25.47451 | -77.95150 | 36232 ft | 415 kts | 288° |
| 2026-04-13 20:18 | 25.48969 | -78.01312 | 36233 ft | 415 kts | 288° |
| 2026-04-13 20:18 | 25.50518 | -78.07467 | 36233 ft | 415 kts | 288° |
| 2026-04-13 20:19 | 25.52050 | -78.13572 | 36229 ft | 414 kts | 288° |
| 2026-04-13 20:19 | 25.53589 | -78.19742 | 36232 ft | 415 kts | 288° |
| 2026-04-13 20:20 | 25.55117 | -78.25908 | 36232 ft | 415 kts | 288° |
| 2026-04-13 20:20 | 25.56630 | -78.32041 | 36233 ft | 415 kts | 288° |
| 2026-04-13 20:21 | 25.58153 | -78.38212 | 36232 ft | 415 kts | 287° |
| 2026-04-13 20:21 | 25.59683 | -78.44391 | 36236 ft | 415 kts | 287° |
| 2026-04-13 20:22 | 25.61196 | -78.50532 | 36233 ft | 415 kts | 287° |
| 2026-04-13 20:22 | 25.62711 | -78.56717 | 36228 ft | 415 kts | 287° |
| 2026-04-13 20:23 | 25.64214 | -78.62848 | 36228 ft | 415 kts | 287° |
| 2026-04-13 20:23 | 25.65731 | -78.69031 | 36228 ft | 415 kts | 287° |
| 2026-04-13 20:24 | 25.67240 | -78.75194 | 36228 ft | 415 kts | 287° |
| 2026-04-13 20:24 | 25.68739 | -78.81345 | 36228 ft | 415 kts | 287° |
| 2026-04-13 20:25 | 25.70250 | -78.87549 | 36232 ft | 415 kts | 287° |
| 2026-04-13 20:25 | 25.71744 | -78.93682 | 36234 ft | 415 kts | 287° |
| 2026-04-13 20:26 | 25.73240 | -78.99855 | 36234 ft | 415 kts | 287° |
| 2026-04-13 20:26 | 25.74731 | -79.06048 | 36232 ft | 415 kts | 287° |
| 2026-04-13 20:27 | 25.76211 | -79.12201 | 36236 ft | 415 kts | 286° |
| 2026-04-13 20:27 | 25.77703 | -79.18397 | 36235 ft | 415 kts | 286° |
| 2026-04-13 20:28 | 25.79188 | -79.24574 | 36236 ft | 415 kts | 286° |
| 2026-04-13 20:28 | 25.80676 | -79.30780 | 36237 ft | 415 kts | 286° |
| 2026-04-13 20:29 | 25.82157 | -79.36936 | 36236 ft | 414 kts | 286° |
| 2026-04-13 20:29 | 25.83642 | -79.43131 | 36242 ft | 414 kts | 286° |
| 2026-04-13 20:30 | 25.85107 | -79.49301 | 36240 ft | 414 kts | 286° |
| 2026-04-13 20:30 | 25.86579 | -79.55506 | 36241 ft | 414 kts | 286° |
| 2026-04-13 20:31 | 25.88047 | -79.61663 | 36239 ft | 414 kts | 286° |
| 2026-04-13 20:31 | 25.89509 | -79.67822 | 36236 ft | 414 kts | 285° |
| 2026-04-13 20:32 | 25.90971 | -79.74034 | 36242 ft | 414 kts | 285° |
| 2026-04-13 20:32 | 25.92701 | -79.80103 | 36238 ft | 414 kts | 296° |
| 2026-04-13 20:33 | 25.95662 | -79.85576 | 36243 ft | 414 kts | 301° |
| 2026-04-13 20:33 | 25.98713 | -79.91036 | 36244 ft | 414 kts | 301° |
| 2026-04-13 20:34 | 26.01753 | -79.96480 | 36249 ft | 414 kts | 301° |
| 2026-04-13 20:34 | 26.04791 | -80.01905 | 36250 ft | 414 kts | 301° |
| 2026-04-13 20:35 | 26.07823 | -80.07327 | 36250 ft | 414 kts | 301° |
| 2026-04-13 20:35 | 26.10870 | -80.12780 | 36248 ft | 415 kts | 301° |
| 2026-04-13 20:36 | 26.13904 | -80.18239 | 36255 ft | 415 kts | 301° |
| 2026-04-13 20:36 | 26.17312 | -80.23441 | 36253 ft | 416 kts | 307° |
| 2026-04-13 20:37 | 26.20945 | -80.28471 | 36253 ft | 416 kts | 307° |
| 2026-04-13 20:37 | 26.24541 | -80.33469 | 36255 ft | 416 kts | 307° |
| 2026-04-13 20:38 | 26.28171 | -80.38520 | 36255 ft | 417 kts | 307° |
| 2026-04-13 20:38 | 26.31790 | -80.43562 | 36259 ft | 417 kts | 307° |
| 2026-04-13 20:39 | 26.35421 | -80.48622 | 36260 ft | 417 kts | 307° |
| 2026-04-13 20:39 | 26.39036 | -80.53664 | 36263 ft | 418 kts | 307° |
| 2026-04-13 20:40 | 26.42667 | -80.58733 | 36265 ft | 418 kts | 307° |
| 2026-04-13 20:40 | 26.46298 | -80.63818 | 36262 ft | 418 kts | 307° |
| 2026-04-13 20:41 | 26.49928 | -80.68899 | 36263 ft | 418 kts | 307° |
| 2026-04-13 20:41 | 26.53540 | -80.73959 | 36264 ft | 419 kts | 307° |
| 2026-04-13 20:42 | 26.57175 | -80.79061 | 36266 ft | 419 kts | 307° |
| 2026-04-13 20:42 | 26.60801 | -80.84155 | 36267 ft | 419 kts | 307° |
| 2026-04-13 20:43 | 26.64433 | -80.89257 | 36265 ft | 419 kts | 307° |
| 2026-04-13 20:43 | 26.68040 | -80.94335 | 36262 ft | 419 kts | 307° |
| 2026-04-13 20:44 | 26.71661 | -80.99452 | 36264 ft | 419 kts | 307° |
| 2026-04-13 20:44 | 26.75281 | -81.04572 | 36262 ft | 419 kts | 307° |
| 2026-04-13 20:45 | 26.78899 | -81.09672 | 36260 ft | 419 kts | 307° |
| 2026-04-13 20:46 | 26.84340 | -81.17370 | 36256 ft | 419 kts | 307° |
| 2026-04-13 20:46 | 26.87938 | -81.22465 | 36257 ft | 419 kts | 307° |
| 2026-04-13 20:47 | 26.91553 | -81.27592 | 36256 ft | 419 kts | 307° |
| 2026-04-13 20:47 | 26.95177 | -81.32745 | 36251 ft | 420 kts | 307° |
| 2026-04-13 20:48 | 26.99170 | -81.37455 | 36251 ft | 423 kts | 321° |
| 2026-04-13 20:48 | 27.04220 | -81.40947 | 36255 ft | 426 kts | 326° |
| 2026-04-13 20:49 | 27.09331 | -81.44331 | 36252 ft | 426 kts | 326° |
| 2026-04-13 20:49 | 27.14396 | -81.47718 | 36258 ft | 426 kts | 326° |
| 2026-04-13 20:50 | 27.19523 | -81.51156 | 36259 ft | 427 kts | 326° |
| 2026-04-13 20:50 | 27.24603 | -81.54553 | 36262 ft | 427 kts | 326° |
| 2026-04-13 20:51 | 27.29717 | -81.57966 | 36265 ft | 427 kts | 326° |
| 2026-04-13 20:51 | 27.33967 | -81.60797 | 36265 ft | 427 kts | 326° |
| 2026-04-13 20:52 | 27.39092 | -81.64219 | 36271 ft | 428 kts | 326° |
| 2026-04-13 20:52 | 27.44205 | -81.67645 | 36274 ft | 428 kts | 326° |
| 2026-04-13 20:53 | 27.49290 | -81.71054 | 36277 ft | 428 kts | 326° |
| 2026-04-13 20:53 | 27.54423 | -81.74502 | 36283 ft | 428 kts | 326° |
| 2026-04-13 20:54 | 27.59549 | -81.77957 | 36282 ft | 429 kts | 326° |
| 2026-04-13 20:54 | 27.64609 | -81.81365 | 36287 ft | 429 kts | 326° |
| 2026-04-13 20:55 | 27.69711 | -81.84802 | 36284 ft | 429 kts | 326° |
| 2026-04-13 20:55 | 27.74848 | -81.88271 | 36281 ft | 429 kts | 326° |
| 2026-04-13 20:56 | 27.79960 | -81.91714 | 36280 ft | 429 kts | 326° |
| 2026-04-13 20:56 | 27.85100 | -81.95183 | 36273 ft | 429 kts | 326° |
| 2026-04-13 20:57 | 27.90207 | -81.98645 | 36270 ft | 429 kts | 326° |
| 2026-04-13 20:57 | 27.95344 | -82.02128 | 36271 ft | 429 kts | 326° |
| 2026-04-13 20:58 | 28.00432 | -82.05584 | 36269 ft | 429 kts | 326° |
| 2026-04-13 20:58 | 28.05555 | -82.09066 | 36268 ft | 429 kts | 326° |
| 2026-04-13 20:59 | 28.10650 | -82.12545 | 36273 ft | 429 kts | 325° |
| 2026-04-13 20:59 | 28.15704 | -82.16135 | 36276 ft | 429 kts | 324° |
| 2026-04-13 21:00 | 28.20751 | -82.19773 | 36276 ft | 429 kts | 324° |
| 2026-04-13 21:00 | 28.25767 | -82.23374 | 36277 ft | 429 kts | 324° |
| 2026-04-13 21:01 | 28.30829 | -82.26977 | 36278 ft | 429 kts | 324° |
| 2026-04-13 21:01 | 28.35901 | -82.30588 | 36270 ft | 429 kts | 324° |
| 2026-04-13 21:02 | 28.40923 | -82.34175 | 36269 ft | 429 kts | 324° |
| 2026-04-13 21:02 | 28.45997 | -82.37809 | 36277 ft | 429 kts | 324° |
| 2026-04-13 21:03 | 28.51022 | -82.41413 | 36277 ft | 429 kts | 324° |
| 2026-04-13 21:03 | 28.56083 | -82.45046 | 36279 ft | 429 kts | 324° |
| 2026-04-13 21:04 | 28.61116 | -82.48666 | 36280 ft | 429 kts | 324° |
| 2026-04-13 21:04 | 28.66176 | -82.52300 | 36283 ft | 429 kts | 324° |
| 2026-04-13 21:05 | 28.71205 | -82.55923 | 36286 ft | 429 kts | 324° |
| 2026-04-13 21:05 | 28.76263 | -82.59572 | 36288 ft | 429 kts | 324° |
| 2026-04-13 21:06 | 28.81290 | -82.63204 | 36287 ft | 429 kts | 324° |
| 2026-04-13 21:06 | 28.86363 | -82.66869 | 36292 ft | 429 kts | 324° |
| 2026-04-13 21:07 | 28.91380 | -82.70500 | 36291 ft | 429 kts | 324° |
| 2026-04-13 21:07 | 28.96431 | -82.74164 | 36290 ft | 429 kts | 324° |
| 2026-04-13 21:08 | 29.01447 | -82.77803 | 36288 ft | 429 kts | 324° |
| 2026-04-13 21:08 | 29.06498 | -82.81465 | 36284 ft | 429 kts | 324° |
| 2026-04-13 21:09 | 29.11543 | -82.85122 | 36277 ft | 429 kts | 323° |
| 2026-04-13 21:09 | 29.16558 | -82.88760 | 36274 ft | 429 kts | 323° |
| 2026-04-13 21:10 | 29.21597 | -82.92437 | 36275 ft | 428 kts | 323° |
| 2026-04-13 21:10 | 29.26600 | -82.96095 | 36274 ft | 428 kts | 323° |
| 2026-04-13 21:11 | 29.31565 | -82.99722 | 36285 ft | 428 kts | 323° |
| 2026-04-13 21:11 | 29.36659 | -83.03448 | 36277 ft | 429 kts | 323° |
| 2026-04-13 21:12 | 29.41661 | -83.07117 | 36276 ft | 429 kts | 323° |
| 2026-04-13 21:12 | 29.46692 | -83.10815 | 36277 ft | 429 kts | 323° |
| 2026-04-13 21:13 | 29.51690 | -83.14487 | 36279 ft | 429 kts | 323° |
| 2026-04-13 21:13 | 29.56735 | -83.18190 | 36278 ft | 429 kts | 323° |
| 2026-04-13 21:14 | 29.61772 | -83.21890 | 36277 ft | 429 kts | 323° |
| 2026-04-13 21:14 | 29.66777 | -83.25583 | 36277 ft | 429 kts | 323° |
| 2026-04-13 21:15 | 29.71808 | -83.29300 | 36279 ft | 429 kts | 323° |
| 2026-04-13 21:15 | 29.76837 | -83.33008 | 36279 ft | 429 kts | 323° |
| 2026-04-13 21:16 | 29.81869 | -83.36723 | 36284 ft | 429 kts | 323° |
| 2026-04-13 21:16 | 29.86876 | -83.40432 | 36289 ft | 429 kts | 323° |
| 2026-04-13 21:17 | 29.91910 | -83.44158 | 36294 ft | 429 kts | 323° |
| 2026-04-13 21:17 | 29.96904 | -83.47871 | 36289 ft | 429 kts | 322° |
| 2026-04-13 21:18 | 30.01931 | -83.51601 | 36291 ft | 429 kts | 322° |
| 2026-04-13 21:18 | 30.06940 | -83.55323 | 36293 ft | 429 kts | 322° |
| 2026-04-13 21:19 | 30.11970 | -83.59076 | 36295 ft | 429 kts | 322° |
| 2026-04-13 21:19 | 30.16968 | -83.62809 | 36297 ft | 430 kts | 322° |
| 2026-04-13 21:20 | 30.21994 | -83.66553 | 36298 ft | 430 kts | 322° |
| 2026-04-13 21:20 | 30.27043 | -83.70283 | 36292 ft | 430 kts | 322° |
| 2026-04-13 21:21 | 30.32068 | -83.73998 | 36287 ft | 430 kts | 322° |
| 2026-04-13 21:21 | 30.37112 | -83.77743 | 36289 ft | 429 kts | 322° |
| 2026-04-13 21:22 | 30.42152 | -83.81490 | 36290 ft | 429 kts | 322° |
| 2026-04-13 21:22 | 30.47147 | -83.85204 | 36295 ft | 429 kts | 322° |
| 2026-04-13 21:23 | 30.52187 | -83.88960 | 36303 ft | 430 kts | 322° |
| 2026-04-13 21:23 | 30.57229 | -83.92714 | 36301 ft | 430 kts | 322° |
| 2026-04-13 21:24 | 30.62265 | -83.96476 | 36306 ft | 430 kts | 322° |
| 2026-04-13 21:24 | 30.67264 | -84.00219 | 36304 ft | 430 kts | 322° |
| 2026-04-13 21:25 | 30.72301 | -84.03993 | 36307 ft | 430 kts | 322° |
| 2026-04-13 21:25 | 30.77306 | -84.07739 | 36304 ft | 430 kts | 322° |
| 2026-04-13 21:26 | 30.82371 | -84.11532 | 36302 ft | 430 kts | 322° |
| 2026-04-13 21:26 | 30.87369 | -84.15288 | 36301 ft | 430 kts | 322° |
| 2026-04-13 21:27 | 30.92400 | -84.19080 | 36303 ft | 430 kts | 322° |
| 2026-04-13 21:27 | 30.97399 | -84.22857 | 36294 ft | 430 kts | 322° |
| 2026-04-13 21:28 | 31.02425 | -84.26647 | 36292 ft | 430 kts | 322° |
| 2026-04-13 21:28 | 31.07439 | -84.30424 | 36287 ft | 430 kts | 322° |
| 2026-04-13 21:29 | 31.12461 | -84.34217 | 36285 ft | 430 kts | 322° |
| 2026-04-13 21:29 | 31.17491 | -84.38033 | 36282 ft | 430 kts | 322° |
| 2026-04-13 21:30 | 31.22488 | -84.41823 | 36284 ft | 430 kts | 322° |
| 2026-04-13 21:30 | 31.27528 | -84.45638 | 36287 ft | 430 kts | 322° |
| 2026-04-13 21:31 | 31.32530 | -84.49437 | 36293 ft | 431 kts | 322° |
| 2026-04-13 21:31 | 31.37561 | -84.53273 | 36303 ft | 431 kts | 322° |
| 2026-04-13 21:32 | 31.42603 | -84.57121 | 36302 ft | 431 kts | 322° |
| 2026-04-13 21:32 | 31.47610 | -84.60943 | 36300 ft | 431 kts | 322° |
| 2026-04-13 21:33 | 31.52707 | -84.64726 | 36306 ft | 432 kts | 323° |
| 2026-04-13 21:33 | 31.57824 | -84.68368 | 36304 ft | 433 kts | 324° |
| 2026-04-13 21:34 | 31.65540 | -84.73884 | 36307 ft | 432 kts | 323° |
| 2026-04-13 21:34 | 31.70669 | -84.77602 | 36317 ft | 432 kts | 323° |
| 2026-04-13 21:35 | 31.75767 | -84.81302 | 36315 ft | 432 kts | 323° |
| 2026-04-13 21:36 | 31.83421 | -84.86852 | 36310 ft | 432 kts | 323° |
| 2026-04-13 21:36 | 31.88550 | -84.90591 | 36312 ft | 431 kts | 323° |
| 2026-04-13 21:37 | 31.93618 | -84.94286 | 36309 ft | 431 kts | 323° |
| 2026-04-13 21:37 | 31.98733 | -84.98011 | 36305 ft | 431 kts | 323° |
| 2026-04-13 21:38 | 32.03840 | -85.01730 | 36305 ft | 431 kts | 323° |
| 2026-04-13 21:38 | 32.08911 | -85.05439 | 36303 ft | 431 kts | 323° |
| 2026-04-13 21:39 | 32.14013 | -85.09176 | 36302 ft | 430 kts | 323° |
| 2026-04-13 21:39 | 32.19110 | -85.12912 | 36279 ft | 430 kts | 323° |
| 2026-04-13 21:40 | 32.24171 | -85.16629 | 36277 ft | 430 kts | 324° |
| 2026-04-13 21:40 | 32.29257 | -85.20361 | 36277 ft | 430 kts | 324° |
| 2026-04-13 21:41 | 32.33492 | -85.23475 | 36279 ft | 430 kts | 324° |
| 2026-04-13 21:41 | 32.38576 | -85.27228 | 36285 ft | 430 kts | 324° |
| 2026-04-13 21:42 | 32.43646 | -85.30971 | 36288 ft | 430 kts | 324° |
| 2026-04-13 21:42 | 32.48705 | -85.34705 | 36288 ft | 430 kts | 324° |
| 2026-04-13 21:42 | 32.51243 | -85.36578 | 36121 ft | 431 kts | 324° |
| 2026-04-13 21:43 | 32.53795 | -85.38465 | 35877 ft | 431 kts | 324° |
| 2026-04-13 21:43 | 32.56347 | -85.40353 | 35635 ft | 431 kts | 324° |
| 2026-04-13 21:43 | 32.58897 | -85.42241 | 35395 ft | 432 kts | 324° |
| 2026-04-13 21:43 | 32.61449 | -85.44130 | 35157 ft | 432 kts | 324° |
| 2026-04-13 21:44 | 32.64010 | -85.46030 | 34514 ft | 437 kts | 324° |
| 2026-04-13 21:44 | 32.66609 | -85.47963 | 33577 ft | 445 kts | 324° |
| 2026-04-13 21:44 | 32.69241 | -85.49923 | 32931 ft | 445 kts | 325° |
| 2026-04-13 21:44 | 32.71859 | -85.51871 | 32383 ft | 443 kts | 324° |
| 2026-04-13 21:45 | 32.74437 | -85.53788 | 31810 ft | 441 kts | 325° |
| 2026-04-13 21:45 | 32.77042 | -85.55725 | 31240 ft | 440 kts | 324° |
| 2026-04-13 21:45 | 32.79642 | -85.57661 | 30665 ft | 439 kts | 324° |
| 2026-04-13 21:45 | 32.82230 | -85.59589 | 30049 ft | 438 kts | 324° |
| 2026-04-13 21:46 | 32.84774 | -85.61486 | 29489 ft | 434 kts | 324° |
| 2026-04-13 21:46 | 32.87326 | -85.63388 | 28930 ft | 431 kts | 324° |
| 2026-04-13 21:46 | 32.89855 | -85.65274 | 28382 ft | 427 kts | 324° |
| 2026-04-13 21:46 | 32.92375 | -85.67158 | 27839 ft | 424 kts | 324° |
| 2026-04-13 21:47 | 32.94865 | -85.69021 | 27313 ft | 420 kts | 324° |
| 2026-04-13 21:47 | 32.97309 | -85.70853 | 26799 ft | 417 kts | 324° |
| 2026-04-13 21:47 | 32.99764 | -85.72695 | 26292 ft | 414 kts | 324° |
| 2026-04-13 21:47 | 33.02198 | -85.74523 | 25794 ft | 411 kts | 324° |
| 2026-04-13 21:48 | 33.04609 | -85.76334 | 25305 ft | 409 kts | 324° |
| 2026-04-13 21:48 | 33.07014 | -85.78139 | 24829 ft | 407 kts | 324° |
| 2026-04-13 21:48 | 33.09378 | -85.79912 | 24363 ft | 405 kts | 324° |
| 2026-04-13 21:48 | 33.11763 | -85.81704 | 23886 ft | 403 kts | 324° |
| 2026-04-13 21:49 | 33.14140 | -85.83492 | 23350 ft | 402 kts | 324° |
| 2026-04-13 21:49 | 33.16466 | -85.85243 | 22892 ft | 398 kts | 323° |
| 2026-04-13 21:49 | 33.18613 | -85.87286 | 22413 ft | 391 kts | 312° |
| 2026-04-13 21:49 | 33.20393 | -85.89726 | 21932 ft | 387 kts | 307° |
| 2026-04-13 21:50 | 33.22103 | -85.92212 | 21449 ft | 386 kts | 307° |
| 2026-04-13 21:50 | 33.23804 | -85.94680 | 20951 ft | 385 kts | 307° |
| 2026-04-13 21:50 | 33.25493 | -85.97121 | 20531 ft | 382 kts | 307° |
| 2026-04-13 21:50 | 33.27189 | -85.99570 | 20114 ft | 379 kts | 307° |
| 2026-04-13 21:51 | 33.28873 | -86.02001 | 19566 ft | 380 kts | 307° |
| 2026-04-13 21:51 | 33.30542 | -86.04411 | 19236 ft | 373 kts | 307° |
| 2026-04-13 21:51 | 33.32201 | -86.06813 | 18739 ft | 372 kts | 307° |
| 2026-04-13 21:51 | 33.33845 | -86.09195 | 18248 ft | 370 kts | 307° |
| 2026-04-13 21:52 | 33.35477 | -86.11563 | 17741 ft | 368 kts | 307° |
| 2026-04-13 21:52 | 33.37078 | -86.13891 | 17255 ft | 365 kts | 307° |
| 2026-04-13 21:52 | 33.38689 | -86.16237 | 16782 ft | 363 kts | 307° |
| 2026-04-13 21:52 | 33.40284 | -86.18560 | 16319 ft | 361 kts | 307° |
| 2026-04-13 21:53 | 33.41871 | -86.20865 | 15850 ft | 358 kts | 307° |
| 2026-04-13 21:53 | 33.43460 | -86.23172 | 15396 ft | 356 kts | 307° |
| 2026-04-13 21:53 | 33.45030 | -86.25453 | 14960 ft | 354 kts | 307° |
| 2026-04-13 21:53 | 33.46594 | -86.27732 | 14524 ft | 351 kts | 307° |
| 2026-04-13 21:54 | 33.48116 | -86.29956 | 14096 ft | 349 kts | 307° |
| 2026-04-13 21:54 | 33.49651 | -86.32203 | 13581 ft | 347 kts | 307° |
| 2026-04-13 21:54 | 33.51175 | -86.34435 | 13086 ft | 345 kts | 307° |
| 2026-04-13 21:54 | 33.52695 | -86.36664 | 12582 ft | 343 kts | 307° |
| 2026-04-13 21:55 | 33.54203 | -86.38873 | 12083 ft | 341 kts | 307° |
| 2026-04-13 21:55 | 33.55190 | -86.40317 | 11755 ft | 340 kts | 307° |
| 2026-04-13 21:55 | 33.56305 | -86.41945 | 11373 ft | 338 kts | 307° |
| 2026-04-13 21:55 | 33.57792 | -86.44114 | 10734 ft | 336 kts | 307° |
| 2026-04-13 21:56 | 33.59261 | -86.46261 | 10286 ft | 324 kts | 307° |
| 2026-04-13 21:56 | 33.60642 | -86.48278 | 10165 ft | 303 kts | 307° |
| 2026-04-13 21:56 | 33.61907 | -86.50128 | 9838 ft | 291 kts | 307° |
| 2026-04-13 21:56 | 33.63183 | -86.52003 | 9660 ft | 287 kts | 306° |
| 2026-04-13 21:57 | 33.64440 | -86.53859 | 9216 ft | 291 kts | 306° |
| 2026-04-13 21:57 | 33.65712 | -86.55734 | 8916 ft | 287 kts | 306° |
| 2026-04-13 21:57 | 33.66977 | -86.57594 | 8548 ft | 287 kts | 306° |
| 2026-04-13 21:57 | 33.68225 | -86.59431 | 8109 ft | 286 kts | 306° |
| 2026-04-13 21:58 | 33.69483 | -86.61280 | 7720 ft | 285 kts | 305° |
| 2026-04-13 21:58 | 33.70731 | -86.63116 | 7265 ft | 283 kts | 305° |
| 2026-04-13 21:58 | 33.71978 | -86.64953 | 6836 ft | 283 kts | 305° |
| 2026-04-13 21:58 | 33.73034 | -86.66938 | 6137 ft | 284 kts | 287° |
| 2026-04-13 21:59 | 33.73359 | -86.69261 | 5388 ft | 282 kts | 264° |
| 2026-04-13 21:59 | 33.72878 | -86.71516 | 4642 ft | 280 kts | 240° |
| 2026-04-13 21:59 | 33.71851 | -86.73456 | 4149 ft | 272 kts | 231° |
| 2026-04-13 21:59 | 33.70459 | -86.74878 | 3695 ft | 265 kts | 202° |
| 2026-04-13 22:00 | 33.68686 | -86.75331 | 3271 ft | 257 kts | 184° |
| 2026-04-13 22:00 | 33.66917 | -86.75310 | 2874 ft | 250 kts | 176° |
| 2026-04-13 22:00 | 33.65254 | -86.75160 | 2493 ft | 233 kts | 176° |
| 2026-04-13 22:00 | 33.63692 | -86.75017 | 2131 ft | 217 kts | 177° |
| 2026-04-13 22:01 | 33.62233 | -86.74915 | 1803 ft | 203 kts | 178° |
| 2026-04-13 22:01 | 33.60856 | -86.74850 | 1491 ft | 191 kts | 177° |
| 2026-04-13 22:01 | 33.59596 | -86.74763 | 1235 ft | 170 kts | 176° |
| 2026-04-13 22:01 | 33.58448 | -86.74717 | 913 ft | 159 kts | 179° |
| 2026-04-13 22:02 | 33.57395 | -86.74729 | 691 ft | 149 kts | 179° |
| 2026-04-13 22:02 | 33.56461 | -86.74724 | 621 ft | 121 kts | 179° |
| 2026-04-13 22:02 | 33.55947 | -86.74716 | 616 ft | 20 kts | 181° |
| 2026-04-13 22:02 | 33.55863 | -86.74719 | 616 ft | 10 kts | 182° |
| 2026-04-13 22:03 | 33.55791 | -86.74722 | 613 ft | 11 kts | 183° |
| 2026-04-13 22:03 | 33.55755 | -86.74796 | 609 ft | 13 kts | 270° |
| 2026-04-13 22:03 | 33.55824 | -86.74853 | 612 ft | 16 kts | 1° |
| 2026-04-13 22:03 | 33.55946 | -86.74853 | 619 ft | 19 kts | 358° |
| 2026-04-13 22:04 | 33.56071 | -86.74854 | 612 ft | 15 kts | 360° |
| 2026-04-13 22:04 | 33.56187 | -86.74855 | 610 ft | 17 kts | 0° |
| 2026-04-13 22:04 | 33.56278 | -86.74871 | 622 ft | 11 kts | 304° |
| 2026-04-13 22:04 | 33.56290 | -86.74911 | 615 ft | 2 kts | 285° |
| 2026-04-13 22:05 | 33.56303 | -86.74933 | 615 ft | 4 kts | 309° |
| 2026-04-13 22:05 | 33.56314 | -86.74972 | 611 ft | 6 kts | 262° |
| 2026-04-13 22:05 | 33.56305 | -86.75013 | 608 ft | 3 kts | 259° |
| 2026-04-13 22:05 | 33.56304 | -86.75018 | 621 ft | 0 kts | 259° |
| 2026-04-13 22:07 | 33.56304 | -86.75017 | 621 ft | 0 kts | 259° |